Taos Pueblo, New Mexico
Current Conditions -  °F | °C
As of 11:35 PM on Friday 19 Dec 2014 (Local Time) from KSKX Reporting Station
Clear Clear  
Wind Chill: 16°   Ceiling: Unl
Heat Index: 16°   Visibility: 10mi
Dew Point: 10°   Wind: 3mph
Humidity: 79%   Direction: 10°N
Pressure: 30.18"   Gusts: NA
Location:  36.4227°N, 105.509°W
Report Text: KSKX 200635Z AUTO 01003KT 10SM CLR M09/M12 A3018 RMK AO1
Loading
Personal Weather Stations






























Interactive Weather Map New forecast layout! Learn more

10-Day Weather Forecast

Advertisements
Track Severe Weather on mobile